createdAt,value
2018-01-19T00:00:16.136Z,72.84
2018-01-19T00:02:43.618Z,72.62
2018-01-19T00:05:11.148Z,72.56
2018-01-19T00:07:38.692Z,72.19
2018-01-19T00:10:06.227Z,72.30
2018-01-19T00:12:33.664Z,72.38
2018-01-19T00:15:01.168Z,72.16
2018-01-19T00:17:28.676Z,72.24
2018-01-19T00:19:56.238Z,72.32
2018-01-19T00:22:23.737Z,72.34
2018-01-19T00:24:51.206Z,72.38
2018-01-19T00:27:18.686Z,72.10
2018-01-19T00:29:47.058Z,72.15
2018-01-19T00:32:14.577Z,72.19
2018-01-19T00:34:42.037Z,72.40
2018-01-19T00:37:09.953Z,72.74
2018-01-19T00:39:37.506Z,73.00
2018-01-19T00:42:04.958Z,73.10
2018-01-19T00:44:32.429Z,73.24
2018-01-19T00:46:59.925Z,73.45
2018-01-19T00:49:27.441Z,73.54
2018-01-19T00:51:54.893Z,73.67
2018-01-19T00:54:22.413Z,73.40
2018-01-19T00:56:49.958Z,73.35
2018-01-19T00:59:22.364Z,73.67
2018-01-19T01:01:49.880Z,73.84
2018-01-19T01:04:17.341Z,73.86
2018-01-19T01:06:44.796Z,73.93
2018-01-19T01:09:12.328Z,73.87
2018-01-19T01:11:39.770Z,74.03
2018-01-19T01:14:07.269Z,74.07
2018-01-19T01:16:34.722Z,73.76
2018-01-19T01:19:02.245Z,73.40
2018-01-19T01:21:29.716Z,73.46
2018-01-19T01:23:57.189Z,73.30
2018-01-19T01:26:24.712Z,73.40
2018-01-19T01:28:52.194Z,72.85
2018-01-19T01:31:19.675Z,72.46
2018-01-19T01:33:47.104Z,72.07
2018-01-19T01:36:14.633Z,72.03
2018-01-19T01:38:42.126Z,72.08
2018-01-19T01:41:09.631Z,72.07
2018-01-19T01:43:37.093Z,72.39
2018-01-19T01:46:04.569Z,72.22
2018-01-19T01:48:32.044Z,72.02
2018-01-19T01:50:59.501Z,72.18
2018-01-19T01:53:27.036Z,72.47
2018-01-19T01:55:54.496Z,72.64
2018-01-19T01:58:21.969Z,72.57
2018-01-19T02:00:50.300Z,72.72
2018-01-19T02:03:18.047Z,72.62
2018-01-19T02:05:45.518Z,72.50
2018-01-19T02:08:13.537Z,72.53
2018-01-19T02:10:41.040Z,72.28
2018-01-19T02:13:08.492Z,72.37
2018-01-19T02:15:35.993Z,72.23
2018-01-19T02:18:03.501Z,72.35
2018-01-19T02:20:31.577Z,72.41
2018-01-19T02:22:59.045Z,72.41
2018-01-19T02:25:26.593Z,72.60
2018-01-19T02:27:54.054Z,72.76
2018-01-19T02:30:21.604Z,72.79
2018-01-19T02:32:49.104Z,72.79
2018-01-19T02:35:16.605Z,72.85
2018-01-19T02:37:44.076Z,73.04
2018-01-19T02:40:11.571Z,73.21
2018-01-19T02:42:39.059Z,72.87
2018-01-19T02:45:06.588Z,72.62
2018-01-19T02:47:34.127Z,72.14
2018-01-19T02:50:01.702Z,71.91
2018-01-19T02:52:29.196Z,71.35
2018-01-19T02:54:57.479Z,71.28
2018-01-19T02:57:24.973Z,71.08
2018-01-19T02:59:52.701Z,71.01
2018-01-19T03:02:20.147Z,71.12
2018-01-19T03:04:47.578Z,71.16
2018-01-19T03:07:15.070Z,70.99
2018-01-19T03:09:42.537Z,70.96
2018-01-19T03:12:10.064Z,71.12
2018-01-19T03:14:37.545Z,71.28
2018-01-19T03:17:05.064Z,71.15
2018-01-19T03:19:32.512Z,70.86
2018-01-19T03:22:00.331Z,70.99
2018-01-19T03:24:27.794Z,71.30
2018-01-19T03:26:56.118Z,71.21
2018-01-19T03:29:23.578Z,71.07
2018-01-19T03:31:51.086Z,70.89
2018-01-19T03:34:18.550Z,71.04
2018-01-19T03:36:46.004Z,70.63
2018-01-19T03:39:13.482Z,70.49
2018-01-19T03:41:40.982Z,70.47
2018-01-19T03:44:08.477Z,70.27
2018-01-19T03:46:35.954Z,70.18
2018-01-19T03:49:08.410Z,70.09
2018-01-19T03:51:35.880Z,70.09
2018-01-19T03:54:03.357Z,69.76
2018-01-19T03:56:30.872Z,70.00
2018-01-19T03:58:58.346Z,70.17
2018-01-19T04:01:25.872Z,69.99
2018-01-19T04:03:53.322Z,70.23
2018-01-19T04:06:20.832Z,70.04
2018-01-19T04:08:49.144Z,70.12
2018-01-19T04:11:16.601Z,69.73
2018-01-19T04:13:44.122Z,69.68
2018-01-19T04:16:11.572Z,69.73
2018-01-19T04:18:39.019Z,69.68
2018-01-19T04:21:06.564Z,69.46
2018-01-19T04:23:33.995Z,69.36
2018-01-19T04:26:01.477Z,69.12
2018-01-19T04:28:28.960Z,69.41
2018-01-19T04:30:56.414Z,69.17
2018-01-19T04:33:23.861Z,69.00
2018-01-19T04:35:51.446Z,68.74
2018-01-19T04:38:18.930Z,68.94
2018-01-19T04:40:46.453Z,69.11
2018-01-19T04:43:13.911Z,69.02
2018-01-19T04:45:41.398Z,68.94
2018-01-19T04:48:13.853Z,68.89
2018-01-19T04:50:41.362Z,69.22
2018-01-19T04:53:08.847Z,69.39
2018-01-19T04:55:36.292Z,69.61
2018-01-19T04:58:03.803Z,69.62
2018-01-19T05:00:31.287Z,69.53
2018-01-19T05:02:58.733Z,69.61
2018-01-19T05:05:26.266Z,69.65
2018-01-19T05:07:53.707Z,69.76
2018-01-19T05:10:21.264Z,69.70
2018-01-19T05:12:48.700Z,69.92
2018-01-19T05:15:16.244Z,70.04
2018-01-19T05:17:43.708Z,69.88
2018-01-19T05:20:11.192Z,69.89
2018-01-19T05:22:39.891Z,70.07
2018-01-19T05:25:07.355Z,70.21
2018-01-19T05:27:34.902Z,70.35
2018-01-19T05:30:02.418Z,70.32
2018-01-19T05:32:29.920Z,70.47
2018-01-19T05:34:57.357Z,70.52
2018-01-19T05:37:24.866Z,70.67
2018-01-19T05:39:52.340Z,70.85
2018-01-19T05:42:19.809Z,71.09
2018-01-19T05:44:47.295Z,71.03
2018-01-19T05:47:14.780Z,70.99
2018-01-19T05:49:42.296Z,71.17
2018-01-19T05:52:09.774Z,71.04
2018-01-19T05:54:37.287Z,71.10
2018-01-19T05:57:04.788Z,71.36
2018-01-19T05:59:32.257Z,71.16
2018-01-19T06:01:59.758Z,71.16
2018-01-19T06:04:27.248Z,71.30
2018-01-19T06:06:54.801Z,71.31
2018-01-19T06:09:22.241Z,71.28
2018-01-19T06:11:49.714Z,71.24
2018-01-19T06:14:17.191Z,71.27
2018-01-19T06:16:44.729Z,71.21
2018-01-19T06:19:17.223Z,71.29
2018-01-19T06:21:44.714Z,71.44
2018-01-19T06:24:12.172Z,71.72
2018-01-19T06:26:39.644Z,71.74
2018-01-19T06:29:07.187Z,71.84
2018-01-19T06:31:34.735Z,71.91
2018-01-19T06:34:02.233Z,71.71
2018-01-19T06:36:29.791Z,71.68
2018-01-19T06:38:57.265Z,71.72
2018-01-19T06:41:24.766Z,71.96
2018-01-19T06:43:52.281Z,71.99
2018-01-19T06:46:19.781Z,71.73
2018-01-19T06:48:47.223Z,71.47
2018-01-19T06:51:14.788Z,71.58
2018-01-19T06:53:42.234Z,71.44
2018-01-19T06:56:09.750Z,71.79
2018-01-19T06:58:37.233Z,71.96
2018-01-19T07:01:04.758Z,71.83
2018-01-19T07:03:32.207Z,72.13
2018-01-19T07:05:59.707Z,72.42
2018-01-19T07:08:27.217Z,72.46
2018-01-19T07:10:54.759Z,72.39
2018-01-19T07:13:22.233Z,72.39
2018-01-19T07:15:49.735Z,72.44
2018-01-19T07:18:17.611Z,72.17
2018-01-19T07:20:45.142Z,72.15
2018-01-19T07:23:12.684Z,72.27
2018-01-19T07:25:40.289Z,72.37
2018-01-19T07:28:07.811Z,72.48
2018-01-19T07:30:35.400Z,72.46
2018-01-19T07:33:02.907Z,72.67
2018-01-19T07:35:30.488Z,72.93
2018-01-19T07:37:58.012Z,73.17
2018-01-19T07:40:25.620Z,73.32
2018-01-19T07:42:53.221Z,73.17
2018-01-19T07:45:20.712Z,72.93
2018-01-19T07:47:48.343Z,72.76
2018-01-19T07:50:15.887Z,72.47
2018-01-19T07:52:43.473Z,72.11
2018-01-19T07:55:11.013Z,72.17
2018-01-19T07:57:38.567Z,71.83
2018-01-19T08:00:06.262Z,71.85
2018-01-19T08:02:33.780Z,71.74
2018-01-19T08:05:01.427Z,71.58
2018-01-19T08:07:29.759Z,71.89
2018-01-19T08:09:57.344Z,72.20
2018-01-19T08:12:25.035Z,72.19
2018-01-19T08:14:52.654Z,72.16
2018-01-19T08:17:20.156Z,72.11
2018-01-19T08:19:47.616Z,71.74
2018-01-19T08:22:15.095Z,71.10
2018-01-19T08:24:42.556Z,71.08
2018-01-19T08:27:10.054Z,70.71
2018-01-19T08:29:51.875Z,70.48
2018-01-19T08:32:19.419Z,69.84
2018-01-19T08:34:46.893Z,69.70
2018-01-19T08:37:14.370Z,69.19
2018-01-19T08:39:41.892Z,69.00
2018-01-19T08:42:09.489Z,68.86
2018-01-19T08:44:36.935Z,68.82
2018-01-19T08:47:04.439Z,69.88
2018-01-19T08:49:31.902Z,68.48
2018-01-19T08:51:59.420Z,68.29
2018-01-19T08:54:26.861Z,68.31
2018-01-19T08:56:54.339Z,68.63
2018-01-19T08:59:21.816Z,68.51
2018-01-19T09:01:49.335Z,68.57
2018-01-19T09:04:16.815Z,68.72
2018-01-19T09:06:44.338Z,68.82
2018-01-19T09:09:11.826Z,68.99
2018-01-19T09:11:39.334Z,69.11
2018-01-19T09:14:06.792Z,69.26
2018-01-19T09:16:34.289Z,69.33
2018-01-19T09:19:01.751Z,69.49
2018-01-19T09:21:29.300Z,69.50
2018-01-19T09:23:56.794Z,69.57
2018-01-19T09:26:24.310Z,69.42
2018-01-19T09:28:51.841Z,69.52
2018-01-19T09:31:19.292Z,69.59
2018-01-19T09:33:46.795Z,69.24
2018-01-19T09:36:14.434Z,69.31
2018-01-19T09:38:41.996Z,69.56
2018-01-19T09:41:09.529Z,68.85
2018-01-19T09:43:37.384Z,68.97
2018-01-19T09:46:05.761Z,68.42
2018-01-19T09:48:33.257Z,68.23
2018-01-19T09:51:00.789Z,68.27
2018-01-19T09:53:28.279Z,67.97
2018-01-19T09:55:55.788Z,67.34
2018-01-19T09:58:23.524Z,66.86
2018-01-19T10:00:50.988Z,66.53
2018-01-19T10:03:18.427Z,66.44
2018-01-19T10:05:45.882Z,65.96
2018-01-19T10:08:13.382Z,65.60
2018-01-19T10:10:40.887Z,65.85
2018-01-19T10:13:08.399Z,65.08
2018-01-19T10:15:35.872Z,64.66
2018-01-19T10:18:03.427Z,64.79
2018-01-19T10:20:30.918Z,64.47
2018-01-19T10:22:58.399Z,64.79
2018-01-19T10:25:25.889Z,65.26
2018-01-19T10:27:53.356Z,65.49
2018-01-19T10:30:20.891Z,65.67
2018-01-19T10:32:48.384Z,66.04
2018-01-19T10:35:15.855Z,66.43
2018-01-19T10:37:43.318Z,66.69
2018-01-19T10:40:10.832Z,66.45
2018-01-19T10:42:38.340Z,66.77
2018-01-19T10:45:05.780Z,66.61
2018-01-19T10:47:33.287Z,66.64
2018-01-19T10:50:00.793Z,66.79
2018-01-19T10:52:28.315Z,67.04
2018-01-19T10:54:55.780Z,66.45
2018-01-19T10:57:23.289Z,65.92
2018-01-19T10:59:50.728Z,65.79
2018-01-19T11:02:18.245Z,65.69
2018-01-19T11:04:45.861Z,65.79
2018-01-19T11:07:13.357Z,65.87
2018-01-19T11:09:40.888Z,66.55
2018-01-19T11:12:08.414Z,67.44
2018-01-19T11:14:35.899Z,67.87
2018-01-19T11:17:03.360Z,68.33
2018-01-19T11:19:30.852Z,68.48
2018-01-19T11:21:58.362Z,68.84
2018-01-19T11:24:25.826Z,68.22
2018-01-19T11:26:53.319Z,67.72
2018-01-19T11:29:25.849Z,66.95
2018-01-19T11:31:53.358Z,66.87
2018-01-19T11:34:20.815Z,68.03
2018-01-19T11:36:48.293Z,68.56
2018-01-19T11:39:20.860Z,69.14
2018-01-19T11:41:48.351Z,69.19
2018-01-19T11:44:15.856Z,69.37
2018-01-19T11:46:43.408Z,69.77
2018-01-19T11:49:10.952Z,70.51
2018-01-19T11:51:38.642Z,70.88
2018-01-19T11:54:06.250Z,71.08
2018-01-19T11:56:33.814Z,70.92
2018-01-19T11:59:01.460Z,70.86
2018-01-19T12:01:29.142Z,71.04
2018-01-19T12:03:56.606Z,71.45
2018-01-19T12:06:24.259Z,71.55
2018-01-19T12:08:51.809Z,71.66
2018-01-19T12:11:19.273Z,71.19
2018-01-19T12:13:46.792Z,70.96
2018-01-19T12:16:14.313Z,71.02
2018-01-19T12:18:41.794Z,71.20
2018-01-19T12:21:09.276Z,71.07
2018-01-19T12:23:36.751Z,70.74
2018-01-19T12:26:04.225Z,70.11
2018-01-19T12:28:31.707Z,69.72
2018-01-19T12:30:59.258Z,69.98
2018-01-19T12:33:26.815Z,70.66
2018-01-19T12:35:54.360Z,71.19
2018-01-19T12:38:22.358Z,71.50
2018-01-19T12:40:50.352Z,71.59
2018-01-19T12:43:17.850Z,71.94
2018-01-19T12:45:45.437Z,71.43
2018-01-19T12:48:12.917Z,71.80
2018-01-19T12:50:40.546Z,72.39
2018-01-19T12:53:08.505Z,72.62
2018-01-19T12:55:36.144Z,72.91
2018-01-19T12:58:04.569Z,73.33
2018-01-19T13:00:32.256Z,73.24
2018-01-19T13:02:59.769Z,73.45
2018-01-19T13:05:27.507Z,73.61
2018-01-19T13:07:55.073Z,73.60
2018-01-19T13:10:22.532Z,73.74
2018-01-19T13:12:50.096Z,73.84
2018-01-19T13:15:17.657Z,74.28
2018-01-19T13:17:45.178Z,74.45
2018-01-19T13:20:12.740Z,74.52
2018-01-19T13:22:40.235Z,74.27
2018-01-19T13:25:07.824Z,74.38
2018-01-19T13:27:35.345Z,74.41
2018-01-19T13:30:02.947Z,74.55
2018-01-19T13:32:30.466Z,74.69
2018-01-19T13:34:57.928Z,74.82
2018-01-19T13:37:25.538Z,74.60
2018-01-19T13:39:53.099Z,74.42
2018-01-19T13:42:20.585Z,74.25
2018-01-19T13:44:48.126Z,74.16
2018-01-19T13:47:15.838Z,74.33
2018-01-19T13:49:48.400Z,74.68
2018-01-19T13:52:15.920Z,75.05
2018-01-19T13:54:43.452Z,75.39
2018-01-19T13:57:10.919Z,75.77
2018-01-19T13:59:43.503Z,75.65
2018-01-19T14:02:11.142Z,75.58
2018-01-19T14:04:38.655Z,75.94
2018-01-19T14:07:06.352Z,76.07
2018-01-19T14:09:34.029Z,76.31
2018-01-19T14:12:01.581Z,76.32
2018-01-19T14:14:29.081Z,76.48
2018-01-19T14:16:56.557Z,76.63
2018-01-19T14:19:24.095Z,76.88
2018-01-19T14:21:51.620Z,76.77
2018-01-19T14:24:19.078Z,76.85
2018-01-19T14:26:46.651Z,77.08
2018-01-19T14:29:14.139Z,77.15
2018-01-19T14:31:41.619Z,77.31
2018-01-19T14:34:09.388Z,77.51
2018-01-19T14:36:36.909Z,77.80
2018-01-19T14:39:04.482Z,77.88
2018-01-19T14:41:31.976Z,77.97
2018-01-19T14:43:59.494Z,77.97
2018-01-19T14:46:27.059Z,77.83
2018-01-19T14:48:54.535Z,77.40
2018-01-19T14:51:22.814Z,77.50
2018-01-19T14:53:50.348Z,77.50
2018-01-19T14:56:17.839Z,77.84
2018-01-19T14:58:45.475Z,79.46
2018-01-19T15:01:12.919Z,78.17
2018-01-19T15:03:40.466Z,78.25
2018-01-19T15:06:08.001Z,78.39
2018-01-19T15:08:35.520Z,78.01
2018-01-19T15:11:03.106Z,78.68
2018-01-19T15:13:30.567Z,78.48
2018-01-19T15:15:58.082Z,78.43
2018-01-19T15:18:25.594Z,78.10
2018-01-19T15:20:53.113Z,78.37
2018-01-19T15:23:20.591Z,78.54
2018-01-19T15:25:48.157Z,78.62
2018-01-19T15:28:15.982Z,78.64
2018-01-19T15:30:43.575Z,78.34
2018-01-19T15:33:11.064Z,78.32
2018-01-19T15:35:38.689Z,78.58
2018-01-19T15:38:06.277Z,78.81
2018-01-19T15:40:33.799Z,79.04
2018-01-19T15:43:01.457Z,79.03
2018-01-19T15:45:29.063Z,79.28
2018-01-19T15:47:56.645Z,79.22
2018-01-19T15:50:24.383Z,79.33
2018-01-19T15:52:51.932Z,80.71
2018-01-19T15:55:19.469Z,78.88
2018-01-19T15:57:46.948Z,77.87
2018-01-19T16:00:14.828Z,78.15
2018-01-19T16:02:42.318Z,78.54
2018-01-19T16:05:09.874Z,78.66
2018-01-19T16:07:37.455Z,79.09
2018-01-19T16:10:04.990Z,79.24
2018-01-19T16:12:32.516Z,79.32
2018-01-19T16:15:00.133Z,79.68
2018-01-19T16:17:27.738Z,80.25
2018-01-19T16:19:55.303Z,80.08
2018-01-19T16:22:22.842Z,80.25
2018-01-19T16:24:50.874Z,80.27
2018-01-19T16:27:18.534Z,80.29
2018-01-19T16:29:46.141Z,80.52
2018-01-19T16:32:13.660Z,80.95
2018-01-19T16:34:41.280Z,81.04
2018-01-19T16:37:08.858Z,81.72
2018-01-19T16:39:36.387Z,81.37
2018-01-19T16:42:04.006Z,80.94
2018-01-19T16:44:32.758Z,81.40
2018-01-19T16:47:00.400Z,81.02
2018-01-19T16:49:27.927Z,81.57
2018-01-19T16:51:55.517Z,82.01
2018-01-19T16:54:23.079Z,82.53
2018-01-19T16:56:50.658Z,82.44
2018-01-19T16:59:18.126Z,82.55
2018-01-19T17:01:45.727Z,82.45
2018-01-19T17:04:13.272Z,82.69
2018-01-19T17:06:40.854Z,83.14
2018-01-19T17:09:08.474Z,83.13
2018-01-19T17:11:36.099Z,82.97
2018-01-19T17:14:03.630Z,83.10
2018-01-19T17:16:31.206Z,83.32
2018-01-19T17:18:58.722Z,83.70
2018-01-19T17:21:26.290Z,83.79
2018-01-19T17:23:53.853Z,83.73
2018-01-19T17:26:21.474Z,84.08
2018-01-19T17:28:49.059Z,83.92
2018-01-19T17:31:16.614Z,83.56
2018-01-19T17:33:44.166Z,83.64
2018-01-19T17:36:11.660Z,83.86
2018-01-19T17:38:39.286Z,83.64
2018-01-19T17:41:06.783Z,83.33
2018-01-19T17:43:34.418Z,83.51
2018-01-19T17:46:02.137Z,83.51
2018-01-19T17:48:29.752Z,83.72
2018-01-19T17:50:57.226Z,83.71
2018-01-19T17:53:24.777Z,83.46
2018-01-19T17:55:52.359Z,83.10
2018-01-19T17:58:19.897Z,83.17
2018-01-19T18:00:47.596Z,82.96
2018-01-19T18:03:17.488Z,82.25
2018-01-19T18:05:45.176Z,81.81
2018-01-19T18:08:12.752Z,81.65
2018-01-19T18:10:40.351Z,81.74
2018-01-19T18:13:07.904Z,81.80
2018-01-19T18:15:35.483Z,81.89
2018-01-19T18:18:03.005Z,82.12
2018-01-19T18:20:30.606Z,82.11
2018-01-19T18:22:58.192Z,81.99
2018-01-19T18:25:25.931Z,82.11
2018-01-19T18:27:53.473Z,82.53
2018-01-19T18:30:21.020Z,82.16
2018-01-19T18:32:48.550Z,82.14
2018-01-19T18:35:16.175Z,81.86
2018-01-19T18:37:43.802Z,82.04
2018-01-19T18:40:11.336Z,82.57
2018-01-19T18:42:38.832Z,82.02
2018-01-19T18:45:06.584Z,82.25
2018-01-19T18:47:34.393Z,81.87
2018-01-19T18:50:02.221Z,81.55
2018-01-19T18:52:29.809Z,81.62
2018-01-19T18:54:57.400Z,81.45
2018-01-19T18:57:24.965Z,81.12
2018-01-19T18:59:52.557Z,81.06
2018-01-19T19:02:20.105Z,80.66
2018-01-19T19:04:47.645Z,80.61
2018-01-19T19:07:15.216Z,80.38
2018-01-19T19:09:42.709Z,80.38
2018-01-19T19:12:10.215Z,80.06
2018-01-19T19:14:38.990Z,80.24
2018-01-19T19:17:06.556Z,80.00
2018-01-19T19:19:34.131Z,79.57
2018-01-19T19:22:01.657Z,79.80
2018-01-19T19:24:29.164Z,79.81
2018-01-19T19:26:56.740Z,79.77
2018-01-19T19:29:24.303Z,79.73
2018-01-19T19:31:51.860Z,80.00
2018-01-19T19:34:19.446Z,80.24
2018-01-19T19:36:47.033Z,80.18
2018-01-19T19:39:14.512Z,80.28
2018-01-19T19:41:42.065Z,80.26
2018-01-19T19:44:09.622Z,80.30
2018-01-19T19:46:37.161Z,80.49
2018-01-19T19:49:04.662Z,80.56
2018-01-19T19:51:32.395Z,80.38
2018-01-19T19:53:59.923Z,80.34
2018-01-19T19:56:27.496Z,80.25
2018-01-19T19:58:54.968Z,80.54
2018-01-19T20:01:22.637Z,80.28
2018-01-19T20:03:50.120Z,80.68
2018-01-19T20:06:17.833Z,80.60
2018-01-19T20:08:45.443Z,80.57
2018-01-19T20:11:12.995Z,80.64
2018-01-19T20:13:40.613Z,80.28
2018-01-19T20:16:08.161Z,80.47
2018-01-19T20:18:35.708Z,80.37
2018-01-19T20:21:03.230Z,80.30
2018-01-19T20:23:30.746Z,80.09
2018-01-19T20:25:58.275Z,80.19
2018-01-19T20:28:26.079Z,80.04
2018-01-19T20:30:53.774Z,80.04
2018-01-19T20:33:21.375Z,80.36
2018-01-19T20:35:48.932Z,79.80
2018-01-19T20:38:16.563Z,80.04
2018-01-19T20:40:44.223Z,79.77
2018-01-19T20:43:11.766Z,79.79
2018-01-19T20:45:39.333Z,79.51
2018-01-19T20:48:07.043Z,79.65
2018-01-19T20:50:34.621Z,79.79
2018-01-19T20:53:02.201Z,79.64
2018-01-19T20:55:29.736Z,79.73
2018-01-19T20:57:57.251Z,79.82
2018-01-19T21:00:24.809Z,79.65
2018-01-19T21:02:52.373Z,79.72
2018-01-19T21:05:19.914Z,79.81
2018-01-19T21:07:47.582Z,79.65
2018-01-19T21:10:15.140Z,79.66
2018-01-19T21:12:42.728Z,79.82
2018-01-19T21:15:10.305Z,79.70
2018-01-19T21:17:37.947Z,79.77
2018-01-19T21:20:05.447Z,79.77
2018-01-19T21:22:33.082Z,79.83
2018-01-19T21:25:00.684Z,79.42
2018-01-19T21:27:28.303Z,79.48
2018-01-19T21:30:05.506Z,79.19
2018-01-19T21:32:33.074Z,79.75
2018-01-19T21:35:00.583Z,79.27
2018-01-19T21:37:28.271Z,79.71
2018-01-19T21:39:55.882Z,79.45
2018-01-19T21:42:23.535Z,79.25
2018-01-19T21:44:51.283Z,79.16
2018-01-19T21:47:18.865Z,79.29
2018-01-19T21:49:46.429Z,79.09
2018-01-19T21:52:13.980Z,79.06
2018-01-19T21:54:41.499Z,78.90
2018-01-19T21:57:08.995Z,78.79
2018-01-19T21:59:36.590Z,78.94
2018-01-19T22:02:04.169Z,79.04
2018-01-19T22:04:31.696Z,79.76
2018-01-19T22:06:59.276Z,79.03
2018-01-19T22:09:26.990Z,78.91
2018-01-19T22:11:54.524Z,79.06
2018-01-19T22:14:22.096Z,79.09
2018-01-19T22:16:49.666Z,78.99
2018-01-19T22:19:17.161Z,79.22
2018-01-19T22:21:44.785Z,79.29
2018-01-19T22:24:12.365Z,79.18
2018-01-19T22:26:39.930Z,79.01
2018-01-19T22:29:07.468Z,78.96
2018-01-19T22:31:34.974Z,78.97
2018-01-19T22:34:02.575Z,78.92
2018-01-19T22:36:30.072Z,78.81
2018-01-19T22:38:57.596Z,78.86
2018-01-19T22:41:25.101Z,78.83
2018-01-19T22:43:52.713Z,78.75
2018-01-19T22:46:20.220Z,78.86
2018-01-19T22:48:47.720Z,78.90
2018-01-19T22:51:15.217Z,78.63
2018-01-19T22:53:42.830Z,78.57
2018-01-19T22:56:10.350Z,78.72
2018-01-19T22:58:37.875Z,78.37
2018-01-19T23:01:05.355Z,78.36
2018-01-19T23:03:32.842Z,78.45
2018-01-19T23:06:00.330Z,78.23
2018-01-19T23:08:27.870Z,78.30
2018-01-19T23:10:55.389Z,78.32
2018-01-19T23:13:23.018Z,78.54
2018-01-19T23:15:50.538Z,78.71
2018-01-19T23:18:18.025Z,78.52
2018-01-19T23:20:45.536Z,78.38
2018-01-19T23:23:13.014Z,78.43
2018-01-19T23:25:40.608Z,78.60
2018-01-19T23:28:08.171Z,78.81
2018-01-19T23:30:35.718Z,78.71
2018-01-19T23:33:03.246Z,78.67
2018-01-19T23:35:30.740Z,78.67
2018-01-19T23:37:58.252Z,79.00
2018-01-19T23:40:25.778Z,78.87
2018-01-19T23:42:53.279Z,78.86
2018-01-19T23:45:20.786Z,78.82
2018-01-19T23:47:48.305Z,78.68
2018-01-19T23:50:15.817Z,78.66
2018-01-19T23:52:43.335Z,78.94
2018-01-19T23:55:10.844Z,79.09
2018-01-19T23:57:38.375Z,78.88
